sensor_id;sensor_type;location;lat;lon;timestamp;P1;durP1;ratioP1;P2;durP2;ratioP2
52025;SDS011;38041;40.058;18.328;2023-04-03T00:00:35;14.10;;;5.93;;
52025;SDS011;38041;40.058;18.328;2023-04-03T00:03:02;16.93;;;5.67;;
52025;SDS011;38041;40.058;18.328;2023-04-03T00:05:30;12.47;;;3.93;;
52025;SDS011;38041;40.058;18.328;2023-04-03T00:07:58;17.70;;;4.97;;
52025;SDS011;38041;40.058;18.328;2023-04-03T00:10:27;17.73;;;4.83;;
52025;SDS011;38041;40.058;18.328;2023-04-03T00:12:55;18.97;;;5.57;;
52025;SDS011;38041;40.058;18.328;2023-04-03T00:15:23;15.67;;;5.10;;
52025;SDS011;38041;40.058;18.328;2023-04-03T00:17:50;13.20;;;4.33;;
52025;SDS011;38041;40.058;18.328;2023-04-03T00:20:18;18.97;;;5.87;;
52025;SDS011;38041;40.058;18.328;2023-04-03T00:22:46;17.00;;;4.53;;
52025;SDS011;38041;40.058;18.328;2023-04-03T00:25:14;13.37;;;3.27;;
52025;SDS011;38041;40.058;18.328;2023-04-03T00:27:41;18.67;;;4.83;;
52025;SDS011;38041;40.058;18.328;2023-04-03T00:30:10;13.67;;;3.97;;
52025;SDS011;38041;40.058;18.328;2023-04-03T00:32:38;17.90;;;4.63;;
52025;SDS011;38041;40.058;18.328;2023-04-03T00:35:06;25.23;;;5.67;;
52025;SDS011;38041;40.058;18.328;2023-04-03T00:37:34;24.67;;;5.73;;
52025;SDS011;38041;40.058;18.328;2023-04-03T00:40:02;16.97;;;5.07;;
52025;SDS011;38041;40.058;18.328;2023-04-03T00:42:30;12.63;;;4.67;;
52025;SDS011;38041;40.058;18.328;2023-04-03T00:47:27;18.00;;;4.70;;
52025;SDS011;38041;40.058;18.328;2023-04-03T00:49:55;17.70;;;4.07;;
52025;SDS011;38041;40.058;18.328;2023-04-03T00:52:25;16.73;;;3.63;;
52025;SDS011;38041;40.058;18.328;2023-04-03T00:54:54;15.43;;;3.60;;
52025;SDS011;38041;40.058;18.328;2023-04-03T00:57:24;11.73;;;4.47;;
52025;SDS011;38041;40.058;18.328;2023-04-03T00:59:57;21.30;;;5.47;;
52025;SDS011;38041;40.058;18.328;2023-04-03T01:02:27;18.67;;;3.97;;
52025;SDS011;38041;40.058;18.328;2023-04-03T01:04:55;12.70;;;4.17;;
52025;SDS011;38041;40.058;18.328;2023-04-03T01:07:23;21.23;;;4.57;;
52025;SDS011;38041;40.058;18.328;2023-04-03T01:09:52;19.37;;;4.63;;
52025;SDS011;38041;40.058;18.328;2023-04-03T01:12:25;19.13;;;4.70;;
52025;SDS011;38041;40.058;18.328;2023-04-03T01:14:58;21.93;;;4.10;;
52025;SDS011;38041;40.058;18.328;2023-04-03T01:17:40;16.93;;;4.27;;
52025;SDS011;38041;40.058;18.328;2023-04-03T01:25:14;19.45;;;3.45;;
52025;SDS011;38041;40.058;18.328;2023-04-03T01:27:41;21.33;;;3.83;;
52025;SDS011;38041;40.058;18.328;2023-04-03T01:30:09;16.17;;;4.17;;
52025;SDS011;38041;40.058;18.328;2023-04-03T01:32:37;9.97;;;2.57;;
52025;SDS011;38041;40.058;18.328;2023-04-03T01:35:06;22.17;;;4.13;;
52025;SDS011;38041;40.058;18.328;2023-04-03T01:37:34;15.93;;;3.13;;
52025;SDS011;38041;40.058;18.328;2023-04-03T01:40:02;15.17;;;3.00;;
52025;SDS011;38041;40.058;18.328;2023-04-03T01:42:31;14.27;;;3.20;;
52025;SDS011;38041;40.058;18.328;2023-04-03T01:44:59;16.60;;;4.33;;
52025;SDS011;38041;40.058;18.328;2023-04-03T01:47:26;14.67;;;2.67;;
52025;SDS011;38041;40.058;18.328;2023-04-03T01:49:55;18.30;;;2.27;;
52025;SDS011;38041;40.058;18.328;2023-04-03T01:52:23;18.17;;;3.40;;
52025;SDS011;38041;40.058;18.328;2023-04-03T01:54:50;12.87;;;2.47;;
52025;SDS011;38041;40.058;18.328;2023-04-03T01:57:18;18.63;;;2.80;;
52025;SDS011;38041;40.058;18.328;2023-04-03T01:59:46;15.40;;;2.07;;
52025;SDS011;38041;40.058;18.328;2023-04-03T02:02:14;20.33;;;4.23;;
52025;SDS011;38041;40.058;18.328;2023-04-03T02:04:42;10.53;;;2.73;;
52025;SDS011;38041;40.058;18.328;2023-04-03T02:07:10;18.80;;;2.20;;
52025;SDS011;38041;40.058;18.328;2023-04-03T02:09:37;22.60;;;2.60;;
52025;SDS011;38041;40.058;18.328;2023-04-03T02:12:05;16.03;;;2.87;;
52025;SDS011;38041;40.058;18.328;2023-04-03T02:14:33;12.73;;;2.30;;
52025;SDS011;38041;40.058;18.328;2023-04-03T02:17:02;12.47;;;3.00;;
52025;SDS011;38041;40.058;18.328;2023-04-03T02:19:31;14.07;;;2.93;;
52025;SDS011;38041;40.058;18.328;2023-04-03T02:21:59;14.43;;;3.03;;
52025;SDS011;38041;40.058;18.328;2023-04-03T02:24:27;12.33;;;2.03;;
52025;SDS011;38041;40.058;18.328;2023-04-03T02:26:54;15.93;;;2.37;;
52025;SDS011;38041;40.058;18.328;2023-04-03T02:29:22;26.17;;;2.57;;
52025;SDS011;38041;40.058;18.328;2023-04-03T02:31:50;12.50;;;2.67;;
52025;SDS011;38041;40.058;18.328;2023-04-03T02:34:18;16.43;;;2.70;;
52025;SDS011;38041;40.058;18.328;2023-04-03T02:36:46;18.00;;;3.63;;
52025;SDS011;38041;40.058;18.328;2023-04-03T02:39:15;15.10;;;3.60;;
52025;SDS011;38041;40.058;18.328;2023-04-03T02:41:44;14.43;;;2.03;;
52025;SDS011;38041;40.058;18.328;2023-04-03T02:44:17;17.37;;;2.73;;
52025;SDS011;38041;40.058;18.328;2023-04-03T02:46:45;16.17;;;2.63;;
52025;SDS011;38041;40.058;18.328;2023-04-03T02:49:13;11.83;;;1.77;;
52025;SDS011;38041;40.058;18.328;2023-04-03T02:51:41;19.23;;;2.83;;
52025;SDS011;38041;40.058;18.328;2023-04-03T02:54:09;17.47;;;2.67;;
52025;SDS011;38041;40.058;18.328;2023-04-03T02:56:40;24.80;;;2.70;;
52025;SDS011;38041;40.058;18.328;2023-04-03T02:59:08;11.93;;;2.00;;
52025;SDS011;38041;40.058;18.328;2023-04-03T03:01:37;11.57;;;2.10;;
52025;SDS011;38041;40.058;18.328;2023-04-03T03:04:06;16.80;;;2.57;;
52025;SDS011;38041;40.058;18.328;2023-04-03T03:06:33;16.13;;;1.93;;
52025;SDS011;38041;40.058;18.328;2023-04-03T03:09:02;18.53;;;3.17;;
52025;SDS011;38041;40.058;18.328;2023-04-03T03:11:30;18.20;;;2.27;;
52025;SDS011;38041;40.058;18.328;2023-04-03T03:13:57;17.17;;;2.10;;
52025;SDS011;38041;40.058;18.328;2023-04-03T03:16:25;18.73;;;2.53;;
52025;SDS011;38041;40.058;18.328;2023-04-03T03:18:53;13.97;;;2.77;;
52025;SDS011;38041;40.058;18.328;2023-04-03T03:21:21;24.67;;;3.17;;
52025;SDS011;38041;40.058;18.328;2023-04-03T03:23:48;22.03;;;2.27;;
52025;SDS011;38041;40.058;18.328;2023-04-03T03:26:16;10.27;;;1.87;;
52025;SDS011;38041;40.058;18.328;2023-04-03T03:28:44;20.10;;;3.07;;
52025;SDS011;38041;40.058;18.328;2023-04-03T03:31:12;22.93;;;3.97;;
52025;SDS011;38041;40.058;18.328;2023-04-03T03:33:40;17.47;;;2.03;;
52025;SDS011;38041;40.058;18.328;2023-04-03T03:36:07;13.67;;;2.53;;
52025;SDS011;38041;40.058;18.328;2023-04-03T03:38:35;23.77;;;2.03;;
52025;SDS011;38041;40.058;18.328;2023-04-03T03:41:03;16.77;;;1.40;;
52025;SDS011;38041;40.058;18.328;2023-04-03T03:43:33;25.43;;;4.00;;
52025;SDS011;38041;40.058;18.328;2023-04-03T03:46:03;13.40;;;1.57;;
52025;SDS011;38041;40.058;18.328;2023-04-03T03:48:31;16.80;;;2.07;;
52025;SDS011;38041;40.058;18.328;2023-04-03T03:51:00;17.37;;;2.53;;
52025;SDS011;38041;40.058;18.328;2023-04-03T03:53:32;16.90;;;1.40;;
52025;SDS011;38041;40.058;18.328;2023-04-03T03:56:04;11.23;;;1.77;;
52025;SDS011;38041;40.058;18.328;2023-04-03T03:58:34;19.63;;;2.13;;
52025;SDS011;38041;40.058;18.328;2023-04-03T04:01:05;16.33;;;1.77;;
52025;SDS011;38041;40.058;18.328;2023-04-03T04:03:39;19.43;;;4.20;;
52025;SDS011;38041;40.058;18.328;2023-04-03T04:06:08;13.63;;;1.90;;
52025;SDS011;38041;40.058;18.328;2023-04-03T04:08:36;21.90;;;3.57;;
52025;SDS011;38041;40.058;18.328;2023-04-03T04:11:06;24.93;;;3.00;;
52025;SDS011;38041;40.058;18.328;2023-04-03T04:13:35;14.10;;;2.30;;
52025;SDS011;38041;40.058;18.328;2023-04-03T04:16:04;21.63;;;2.77;;
52025;SDS011;38041;40.058;18.328;2023-04-03T04:18:33;15.40;;;3.03;;
52025;SDS011;38041;40.058;18.328;2023-04-03T04:21:00;20.70;;;2.70;;
52025;SDS011;38041;40.058;18.328;2023-04-03T04:23:29;14.30;;;2.50;;
52025;SDS011;38041;40.058;18.328;2023-04-03T04:25:58;18.73;;;1.60;;
52025;SDS011;38041;40.058;18.328;2023-04-03T04:28:29;15.30;;;3.23;;
52025;SDS011;38041;40.058;18.328;2023-04-03T04:30:58;20.30;;;2.30;;
52025;SDS011;38041;40.058;18.328;2023-04-03T04:33:27;16.57;;;1.83;;
52025;SDS011;38041;40.058;18.328;2023-04-03T04:35:57;15.10;;;1.80;;
52025;SDS011;38041;40.058;18.328;2023-04-03T04:38:25;15.80;;;2.87;;
52025;SDS011;38041;40.058;18.328;2023-04-03T04:40:53;18.73;;;2.60;;
52025;SDS011;38041;40.058;18.328;2023-04-03T04:43:21;17.40;;;2.53;;
52025;SDS011;38041;40.058;18.328;2023-04-03T04:46:05;16.53;;;1.97;;
52025;SDS011;38041;40.058;18.328;2023-04-03T04:48:37;12.32;;;2.03;;
52025;SDS011;38041;40.058;18.328;2023-04-03T04:51:06;11.57;;;2.07;;
52025;SDS011;38041;40.058;18.328;2023-04-03T04:53:36;17.43;;;2.53;;
52025;SDS011;38041;40.058;18.328;2023-04-03T04:56:04;14.50;;;2.23;;
52025;SDS011;38041;40.058;18.328;2023-04-03T04:58:34;18.07;;;4.10;;
52025;SDS011;38041;40.058;18.328;2023-04-03T05:01:06;13.70;;;2.73;;
52025;SDS011;38041;40.058;18.328;2023-04-03T05:03:38;28.03;;;4.77;;
52025;SDS011;38041;40.058;18.328;2023-04-03T05:06:06;15.23;;;2.27;;
52025;SDS011;38041;40.058;18.328;2023-04-03T05:08:35;17.17;;;4.60;;
52025;SDS011;38041;40.058;18.328;2023-04-03T05:11:04;10.23;;;2.97;;
52025;SDS011;38041;40.058;18.328;2023-04-03T05:13:33;18.30;;;3.93;;
52025;SDS011;38041;40.058;18.328;2023-04-03T05:16:00;47.73;;;10.93;;
52025;SDS011;38041;40.058;18.328;2023-04-03T05:18:28;62.83;;;18.27;;
52025;SDS011;38041;40.058;18.328;2023-04-03T05:20:59;39.57;;;14.23;;
52025;SDS011;38041;40.058;18.328;2023-04-03T05:23:26;28.30;;;9.17;;
52025;SDS011;38041;40.058;18.328;2023-04-03T05:25:56;23.30;;;9.20;;
52025;SDS011;38041;40.058;18.328;2023-04-03T05:28:25;23.43;;;6.77;;
52025;SDS011;38041;40.058;18.328;2023-04-03T05:30:53;23.40;;;5.07;;
52025;SDS011;38041;40.058;18.328;2023-04-03T05:33:23;16.07;;;4.37;;
52025;SDS011;38041;40.058;18.328;2023-04-03T05:35:53;17.47;;;3.90;;
52025;SDS011;38041;40.058;18.328;2023-04-03T05:38:25;29.93;;;9.03;;
52025;SDS011;38041;40.058;18.328;2023-04-03T05:40:54;29.37;;;11.83;;
52025;SDS011;38041;40.058;18.328;2023-04-03T05:43:22;26.97;;;9.87;;
52025;SDS011;38041;40.058;18.328;2023-04-03T05:45:50;27.00;;;8.13;;
52025;SDS011;38041;40.058;18.328;2023-04-03T05:48:19;12.20;;;5.13;;
52025;SDS011;38041;40.058;18.328;2023-04-03T05:50:47;16.67;;;5.97;;
52025;SDS011;38041;40.058;18.328;2023-04-03T05:53:21;19.80;;;5.37;;
52025;SDS011;38041;40.058;18.328;2023-04-03T05:55:50;22.33;;;7.10;;
52025;SDS011;38041;40.058;18.328;2023-04-03T05:58:18;23.83;;;6.60;;
52025;SDS011;38041;40.058;18.328;2023-04-03T06:00:47;19.80;;;7.73;;
52025;SDS011;38041;40.058;18.328;2023-04-03T06:03:15;14.47;;;5.47;;
52025;SDS011;38041;40.058;18.328;2023-04-03T06:05:43;15.60;;;5.50;;
52025;SDS011;38041;40.058;18.328;2023-04-03T06:08:12;15.83;;;3.97;;
52025;SDS011;38041;40.058;18.328;2023-04-03T06:10:41;17.20;;;5.33;;
52025;SDS011;38041;40.058;18.328;2023-04-03T06:13:08;13.87;;;4.00;;
52025;SDS011;38041;40.058;18.328;2023-04-03T06:15:36;23.20;;;10.53;;
52025;SDS011;38041;40.058;18.328;2023-04-03T06:18:08;29.63;;;15.03;;
52025;SDS011;38041;40.058;18.328;2023-04-03T06:20:36;17.93;;;4.97;;
52025;SDS011;38041;40.058;18.328;2023-04-03T06:23:04;16.13;;;3.33;;
52025;SDS011;38041;40.058;18.328;2023-04-03T06:25:32;15.40;;;4.03;;
52025;SDS011;38041;40.058;18.328;2023-04-03T06:28:01;17.70;;;3.40;;
52025;SDS011;38041;40.058;18.328;2023-04-03T06:30:28;23.40;;;7.03;;
52025;SDS011;38041;40.058;18.328;2023-04-03T06:32:56;15.20;;;3.87;;
52025;SDS011;38041;40.058;18.328;2023-04-03T06:35:26;21.10;;;3.47;;
52025;SDS011;38041;40.058;18.328;2023-04-03T06:37:55;20.53;;;5.10;;
52025;SDS011;38041;40.058;18.328;2023-04-03T06:40:23;15.90;;;5.07;;
52025;SDS011;38041;40.058;18.328;2023-04-03T06:42:54;20.80;;;4.83;;
52025;SDS011;38041;40.058;18.328;2023-04-03T06:45:21;14.83;;;4.03;;
52025;SDS011;38041;40.058;18.328;2023-04-03T06:47:51;20.57;;;4.20;;
52025;SDS011;38041;40.058;18.328;2023-04-03T06:50:19;15.73;;;6.10;;
52025;SDS011;38041;40.058;18.328;2023-04-03T06:52:46;14.90;;;4.07;;
52025;SDS011;38041;40.058;18.328;2023-04-03T06:55:14;14.13;;;3.90;;
52025;SDS011;38041;40.058;18.328;2023-04-03T06:57:42;17.17;;;4.93;;
52025;SDS011;38041;40.058;18.328;2023-04-03T07:00:10;18.97;;;5.00;;
52025;SDS011;38041;40.058;18.328;2023-04-03T07:02:38;20.53;;;4.83;;
52025;SDS011;38041;40.058;18.328;2023-04-03T07:05:06;10.90;;;3.33;;
52025;SDS011;38041;40.058;18.328;2023-04-03T07:07:35;17.17;;;4.60;;
52025;SDS011;38041;40.058;18.328;2023-04-03T07:10:05;17.47;;;3.93;;
52025;SDS011;38041;40.058;18.328;2023-04-03T07:12:33;9.87;;;3.10;;
52025;SDS011;38041;40.058;18.328;2023-04-03T07:15:01;15.63;;;3.97;;
52025;SDS011;38041;40.058;18.328;2023-04-03T07:17:29;14.73;;;4.40;;
52025;SDS011;38041;40.058;18.328;2023-04-03T07:19:57;17.90;;;4.27;;
52025;SDS011;38041;40.058;18.328;2023-04-03T07:22:24;15.70;;;3.60;;
52025;SDS011;38041;40.058;18.328;2023-04-03T07:24:52;13.70;;;4.27;;
52025;SDS011;38041;40.058;18.328;2023-04-03T07:27:20;15.17;;;3.03;;
52025;SDS011;38041;40.058;18.328;2023-04-03T07:29:47;10.47;;;4.70;;
52025;SDS011;38041;40.058;18.328;2023-04-03T07:32:16;10.97;;;5.10;;
52025;SDS011;38041;40.058;18.328;2023-04-03T07:34:44;14.33;;;3.50;;
52025;SDS011;38041;40.058;18.328;2023-04-03T07:37:11;11.93;;;4.23;;
52025;SDS011;38041;40.058;18.328;2023-04-03T07:39:39;9.90;;;3.33;;
52025;SDS011;38041;40.058;18.328;2023-04-03T07:42:08;13.83;;;5.20;;
52025;SDS011;38041;40.058;18.328;2023-04-03T07:44:36;11.40;;;3.30;;
52025;SDS011;38041;40.058;18.328;2023-04-03T07:47:04;9.17;;;2.83;;
52025;SDS011;38041;40.058;18.328;2023-04-03T07:49:32;9.43;;;2.20;;
52025;SDS011;38041;40.058;18.328;2023-04-03T07:52:01;5.30;;;1.23;;
52025;SDS011;38041;40.058;18.328;2023-04-03T07:54:30;8.67;;;3.20;;
52025;SDS011;38041;40.058;18.328;2023-04-03T07:56:57;9.07;;;2.00;;
52025;SDS011;38041;40.058;18.328;2023-04-03T07:59:25;5.13;;;0.93;;
52025;SDS011;38041;40.058;18.328;2023-04-03T08:01:52;5.50;;;0.80;;
52025;SDS011;38041;40.058;18.328;2023-04-03T08:04:20;4.67;;;0.50;;
52025;SDS011;38041;40.058;18.328;2023-04-03T08:06:48;8.57;;;0.80;;
52025;SDS011;38041;40.058;18.328;2023-04-03T08:09:16;8.53;;;1.97;;
52025;SDS011;38041;40.058;18.328;2023-04-03T08:11:44;12.43;;;6.70;;
52025;SDS011;38041;40.058;18.328;2023-04-03T08:14:12;12.47;;;4.33;;
52025;SDS011;38041;40.058;18.328;2023-04-03T08:16:43;10.03;;;2.20;;
52025;SDS011;38041;40.058;18.328;2023-04-03T08:19:11;7.30;;;1.43;;
52025;SDS011;38041;40.058;18.328;2023-04-03T08:21:41;14.53;;;6.83;;
52025;SDS011;38041;40.058;18.328;2023-04-03T08:24:08;15.60;;;7.70;;
52025;SDS011;38041;40.058;18.328;2023-04-03T08:26:36;10.50;;;4.47;;
52025;SDS011;38041;40.058;18.328;2023-04-03T08:29:04;10.63;;;2.33;;
52025;SDS011;38041;40.058;18.328;2023-04-03T08:31:32;10.77;;;2.07;;
52025;SDS011;38041;40.058;18.328;2023-04-03T08:33:59;10.13;;;2.17;;
52025;SDS011;38041;40.058;18.328;2023-04-03T08:36:28;6.47;;;2.20;;
52025;SDS011;38041;40.058;18.328;2023-04-03T08:38:56;14.90;;;6.67;;
52025;SDS011;38041;40.058;18.328;2023-04-03T08:49:34;16.10;;;6.00;;
52025;SDS011;38041;40.058;18.328;2023-04-03T08:52:10;19.23;;;7.73;;
52025;SDS011;38041;40.058;18.328;2023-04-03T08:54:55;11.93;;;4.80;;
52025;SDS011;38041;40.058;18.328;2023-04-03T08:57:26;14.77;;;4.30;;
52025;SDS011;38041;40.058;18.328;2023-04-03T08:59:55;9.97;;;2.63;;
52025;SDS011;38041;40.058;18.328;2023-04-03T09:02:46;15.33;;;5.67;;
52025;SDS011;38041;40.058;18.328;2023-04-03T09:05:15;19.03;;;6.47;;
52025;SDS011;38041;40.058;18.328;2023-04-03T09:08:04;26.20;;;11.80;;
52025;SDS011;38041;40.058;18.328;2023-04-03T09:10:34;26.23;;;12.57;;
52025;SDS011;38041;40.058;18.328;2023-04-03T09:13:06;56.63;;;31.43;;
52025;SDS011;38041;40.058;18.328;2023-04-03T09:15:35;24.07;;;11.23;;
52025;SDS011;38041;40.058;18.328;2023-04-03T09:18:19;13.60;;;6.17;;
52025;SDS011;38041;40.058;18.328;2023-04-03T09:21:08;25.27;;;9.07;;
52025;SDS011;38041;40.058;18.328;2023-04-03T09:23:46;19.73;;;8.43;;
52025;SDS011;38041;40.058;18.328;2023-04-03T09:28:54;21.77;;;10.67;;
52025;SDS011;38041;40.058;18.328;2023-04-03T09:31:23;22.87;;;12.13;;
52025;SDS011;38041;40.058;18.328;2023-04-03T09:33:59;9.13;;;2.90;;
52025;SDS011;38041;40.058;18.328;2023-04-03T09:39:09;5.10;;;1.17;;
52025;SDS011;38041;40.058;18.328;2023-04-03T09:41:38;13.27;;;4.07;;
52025;SDS011;38041;40.058;18.328;2023-04-03T09:44:20;20.00;;;6.77;;
52025;SDS011;38041;40.058;18.328;2023-04-03T09:46:48;20.97;;;11.63;;
52025;SDS011;38041;40.058;18.328;2023-04-03T09:49:16;31.67;;;15.00;;
52025;SDS011;38041;40.058;18.328;2023-04-03T09:51:45;13.17;;;5.77;;
52025;SDS011;38041;40.058;18.328;2023-04-03T09:57:02;11.13;;;5.37;;
52025;SDS011;38041;40.058;18.328;2023-04-03T09:59:31;34.47;;;17.00;;
52025;SDS011;38041;40.058;18.328;2023-04-03T10:02:02;22.63;;;11.63;;
52025;SDS011;38041;40.058;18.328;2023-04-03T10:04:39;41.47;;;23.20;;
52025;SDS011;38041;40.058;18.328;2023-04-03T10:10:20;32.07;;;13.00;;
52025;SDS011;38041;40.058;18.328;2023-04-03T10:15:17;31.23;;;11.30;;
52025;SDS011;38041;40.058;18.328;2023-04-03T10:20:29;14.18;;;5.95;;
52025;SDS011;38041;40.058;18.328;2023-04-03T10:26:26;9.80;;;1.70;;
52025;SDS011;38041;40.058;18.328;2023-04-03T10:28:51;25.23;;;10.23;;
52025;SDS011;38041;40.058;18.328;2023-04-03T10:31:24;22.80;;;10.97;;
52025;SDS011;38041;40.058;18.328;2023-04-03T10:39:16;9.83;;;1.73;;
52025;SDS011;38041;40.058;18.328;2023-04-03T10:41:49;14.93;;;2.83;;
52025;SDS011;38041;40.058;18.328;2023-04-03T10:47:58;8.73;;;1.87;;
52025;SDS011;38041;40.058;18.328;2023-04-03T10:52:48;11.60;;;3.07;;
52025;SDS011;38041;40.058;18.328;2023-04-03T10:55:28;15.23;;;5.30;;
52025;SDS011;38041;40.058;18.328;2023-04-03T10:57:58;9.37;;;4.07;;
52025;SDS011;38041;40.058;18.328;2023-04-03T11:02:58;9.50;;;1.47;;
52025;SDS011;38041;40.058;18.328;2023-04-03T11:07:56;2.33;;;0.40;;
52025;SDS011;38041;40.058;18.328;2023-04-03T11:10:35;7.23;;;2.30;;
52025;SDS011;38041;40.058;18.328;2023-04-03T11:13:08;7.43;;;1.37;;
52025;SDS011;38041;40.058;18.328;2023-04-03T11:15:39;6.90;;;2.00;;
52025;SDS011;38041;40.058;18.328;2023-04-03T11:18:15;5.00;;;1.07;;
52025;SDS011;38041;40.058;18.328;2023-04-03T11:20:47;8.33;;;1.63;;
52025;SDS011;38041;40.058;18.328;2023-04-03T11:25:54;8.87;;;2.93;;
52025;SDS011;38041;40.058;18.328;2023-04-03T11:28:23;11.50;;;3.83;;
52025;SDS011;38041;40.058;18.328;2023-04-03T11:35:51;12.90;;;3.10;;
52025;SDS011;38041;40.058;18.328;2023-04-03T11:38:23;12.00;;;3.73;;
52025;SDS011;38041;40.058;18.328;2023-04-03T11:40:53;10.60;;;3.90;;
52025;SDS011;38041;40.058;18.328;2023-04-03T11:50:55;20.63;;;8.27;;
52025;SDS011;38041;40.058;18.328;2023-04-03T11:53:36;15.37;;;5.40;;
52025;SDS011;38041;40.058;18.328;2023-04-03T12:04:12;19.37;;;5.43;;
52025;SDS011;38041;40.058;18.328;2023-04-03T12:12:00;16.97;;;5.13;;
52025;SDS011;38041;40.058;18.328;2023-04-03T12:14:47;11.63;;;3.80;;
52025;SDS011;38041;40.058;18.328;2023-04-03T12:17:22;11.60;;;3.53;;
52025;SDS011;38041;40.058;18.328;2023-04-03T12:19:51;9.33;;;3.60;;
52025;SDS011;38041;40.058;18.328;2023-04-03T12:22:19;7.50;;;3.40;;
52025;SDS011;38041;40.058;18.328;2023-04-03T12:24:49;21.27;;;3.17;;
52025;SDS011;38041;40.058;18.328;2023-04-03T12:29:55;16.03;;;3.33;;
52025;SDS011;38041;40.058;18.328;2023-04-03T12:35:10;10.10;;;4.90;;
52025;SDS011;38041;40.058;18.328;2023-04-03T12:37:48;19.77;;;11.23;;
52025;SDS011;38041;40.058;18.328;2023-04-03T12:45:40;8.90;;;3.30;;
52025;SDS011;38041;40.058;18.328;2023-04-03T12:48:14;13.43;;;4.97;;
52025;SDS011;38041;40.058;18.328;2023-04-03T12:50:43;12.90;;;4.87;;
52025;SDS011;38041;40.058;18.328;2023-04-03T12:53:13;16.20;;;4.00;;
52025;SDS011;38041;40.058;18.328;2023-04-03T12:55:42;10.90;;;3.90;;
52025;SDS011;38041;40.058;18.328;2023-04-03T12:58:19;7.83;;;3.47;;
52025;SDS011;38041;40.058;18.328;2023-04-03T13:01:04;18.33;;;3.10;;
52025;SDS011;38041;40.058;18.328;2023-04-03T13:03:40;12.97;;;3.13;;
52025;SDS011;38041;40.058;18.328;2023-04-03T13:06:10;8.37;;;3.30;;
52025;SDS011;38041;40.058;18.328;2023-04-03T13:08:49;18.10;;;2.43;;
52025;SDS011;38041;40.058;18.328;2023-04-03T13:11:16;11.48;;;1.60;;
52025;SDS011;38041;40.058;18.328;2023-04-03T13:13:55;10.17;;;1.70;;
52025;SDS011;38041;40.058;18.328;2023-04-03T13:16:23;9.10;;;2.73;;
52025;SDS011;38041;40.058;18.328;2023-04-03T13:18:52;28.13;;;9.30;;
52025;SDS011;38041;40.058;18.328;2023-04-03T13:21:21;19.37;;;7.63;;
52025;SDS011;38041;40.058;18.328;2023-04-03T13:23:51;19.70;;;4.83;;
52025;SDS011;38041;40.058;18.328;2023-04-03T13:26:24;11.33;;;3.10;;
52025;SDS011;38041;40.058;18.328;2023-04-03T13:28:54;18.00;;;4.03;;
52025;SDS011;38041;40.058;18.328;2023-04-03T13:31:26;15.43;;;5.80;;
52025;SDS011;38041;40.058;18.328;2023-04-03T13:36:34;13.43;;;2.77;;
52025;SDS011;38041;40.058;18.328;2023-04-03T13:39:04;12.93;;;2.80;;
52025;SDS011;38041;40.058;18.328;2023-04-03T13:41:34;22.07;;;2.20;;
52025;SDS011;38041;40.058;18.328;2023-04-03T13:46:46;24.10;;;8.63;;
52025;SDS011;38041;40.058;18.328;2023-04-03T13:49:58;9.57;;;1.63;;
52025;SDS011;38041;40.058;18.328;2023-04-03T13:54:57;19.27;;;4.77;;
52025;SDS011;38041;40.058;18.328;2023-04-03T13:57:26;11.68;;;2.55;;
52025;SDS011;38041;40.058;18.328;2023-04-03T13:59:54;12.73;;;3.37;;
52025;SDS011;38041;40.058;18.328;2023-04-03T14:02:32;21.47;;;7.53;;
52025;SDS011;38041;40.058;18.328;2023-04-03T14:05:01;11.37;;;2.53;;
52025;SDS011;38041;40.058;18.328;2023-04-03T14:07:30;10.23;;;2.90;;
52025;SDS011;38041;40.058;18.328;2023-04-03T14:09:58;9.40;;;1.63;;
52025;SDS011;38041;40.058;18.328;2023-04-03T14:14:56;23.27;;;11.60;;
52025;SDS011;38041;40.058;18.328;2023-04-03T14:17:25;12.87;;;5.30;;
52025;SDS011;38041;40.058;18.328;2023-04-03T14:19:54;11.47;;;4.97;;
52025;SDS011;38041;40.058;18.328;2023-04-03T14:22:27;11.20;;;3.00;;
52025;SDS011;38041;40.058;18.328;2023-04-03T14:24:55;11.60;;;3.63;;
52025;SDS011;38041;40.058;18.328;2023-04-03T14:27:28;5.93;;;0.90;;
52025;SDS011;38041;40.058;18.328;2023-04-03T14:29:57;6.30;;;0.70;;
52025;SDS011;38041;40.058;18.328;2023-04-03T14:32:25;5.13;;;1.50;;
52025;SDS011;38041;40.058;18.328;2023-04-03T14:34:53;10.63;;;2.20;;
52025;SDS011;38041;40.058;18.328;2023-04-03T14:37:23;4.83;;;1.00;;
52025;SDS011;38041;40.058;18.328;2023-04-03T14:39:52;4.43;;;1.60;;
52025;SDS011;38041;40.058;18.328;2023-04-03T14:42:22;11.57;;;3.90;;
52025;SDS011;38041;40.058;18.328;2023-04-03T14:44:49;12.47;;;3.00;;
52025;SDS011;38041;40.058;18.328;2023-04-03T14:47:21;2.03;;;0.80;;
52025;SDS011;38041;40.058;18.328;2023-04-03T14:49:55;5.43;;;3.17;;
52025;SDS011;38041;40.058;18.328;2023-04-03T14:52:28;15.77;;;6.40;;
52025;SDS011;38041;40.058;18.328;2023-04-03T14:54:56;12.27;;;7.27;;
52025;SDS011;38041;40.058;18.328;2023-04-03T14:57:25;10.20;;;5.70;;
52025;SDS011;38041;40.058;18.328;2023-04-03T14:59:54;12.20;;;7.97;;
52025;SDS011;38041;40.058;18.328;2023-04-03T15:04:50;10.90;;;5.77;;
52025;SDS011;38041;40.058;18.328;2023-04-03T15:07:18;12.97;;;5.57;;
52025;SDS011;38041;40.058;18.328;2023-04-03T15:09:46;12.73;;;6.17;;
52025;SDS011;38041;40.058;18.328;2023-04-03T15:12:13;11.87;;;5.87;;
52025;SDS011;38041;40.058;18.328;2023-04-03T15:14:41;9.50;;;3.43;;
52025;SDS011;38041;40.058;18.328;2023-04-03T15:17:20;12.43;;;4.67;;
52025;SDS011;38041;40.058;18.328;2023-04-03T15:19:48;12.32;;;5.80;;
52025;SDS011;38041;40.058;18.328;2023-04-03T15:22:17;10.53;;;6.90;;
52025;SDS011;38041;40.058;18.328;2023-04-03T15:24:45;16.30;;;7.30;;
52025;SDS011;38041;40.058;18.328;2023-04-03T15:27:13;13.10;;;5.13;;
52025;SDS011;38041;40.058;18.328;2023-04-03T15:29:42;14.17;;;6.03;;
52025;SDS011;38041;40.058;18.328;2023-04-03T15:32:10;12.47;;;5.37;;
52025;SDS011;38041;40.058;18.328;2023-04-03T15:34:39;5.37;;;2.23;;
52025;SDS011;38041;40.058;18.328;2023-04-03T15:37:07;5.27;;;1.93;;
52025;SDS011;38041;40.058;18.328;2023-04-03T15:39:34;2.87;;;1.33;;
52025;SDS011;38041;40.058;18.328;2023-04-03T15:42:02;4.70;;;1.63;;
52025;SDS011;38041;40.058;18.328;2023-04-03T15:44:33;4.97;;;1.30;;
52025;SDS011;38041;40.058;18.328;2023-04-03T15:47:01;4.37;;;1.70;;
52025;SDS011;38041;40.058;18.328;2023-04-03T15:49:30;5.17;;;3.43;;
52025;SDS011;38041;40.058;18.328;2023-04-03T15:51:58;4.13;;;0.93;;
52025;SDS011;38041;40.058;18.328;2023-04-03T15:54:25;4.20;;;0.73;;
52025;SDS011;38041;40.058;18.328;2023-04-03T15:56:53;4.50;;;2.53;;
52025;SDS011;38041;40.058;18.328;2023-04-03T15:59:21;2.57;;;0.70;;
52025;SDS011;38041;40.058;18.328;2023-04-03T16:01:49;1.80;;;0.63;;
52025;SDS011;38041;40.058;18.328;2023-04-03T16:04:17;2.53;;;1.00;;
52025;SDS011;38041;40.058;18.328;2023-04-03T16:06:47;2.93;;;0.60;;
52025;SDS011;38041;40.058;18.328;2023-04-03T16:09:14;1.53;;;0.63;;
52025;SDS011;38041;40.058;18.328;2023-04-03T16:11:42;7.77;;;1.70;;
52025;SDS011;38041;40.058;18.328;2023-04-03T16:14:10;3.53;;;1.53;;
52025;SDS011;38041;40.058;18.328;2023-04-03T16:16:38;1.30;;;0.30;;
52025;SDS011;38041;40.058;18.328;2023-04-03T16:19:06;5.17;;;1.60;;
52025;SDS011;38041;40.058;18.328;2023-04-03T16:21:34;3.30;;;0.87;;